createdAt,value
2022-10-18T00:01:28.750Z,100.00
2022-10-18T00:03:55.170Z,100.00
2022-10-18T00:06:21.606Z,100.00
2022-10-18T00:08:48.473Z,100.00
2022-10-18T00:11:14.924Z,100.00
2022-10-18T00:13:41.481Z,100.00
2022-10-18T00:16:12.868Z,100.00
2022-10-18T00:18:39.662Z,100.00
2022-10-18T00:21:09.624Z,100.00
2022-10-18T00:23:36.847Z,100.00
2022-10-18T00:26:06.896Z,100.00
2022-10-18T00:28:34.706Z,100.00
2022-10-18T00:31:19.095Z,100.00
2022-10-18T00:33:49.786Z,100.00
2022-10-18T00:36:16.239Z,100.00
2022-10-18T00:38:43.574Z,100.00
2022-10-18T00:41:13.430Z,100.00
2022-10-18T00:43:57.850Z,100.00
2022-10-18T00:46:26.135Z,100.00
2022-10-18T00:51:31.088Z,100.00
2022-10-18T00:53:57.703Z,100.00
2022-10-18T00:56:24.306Z,100.00
2022-10-18T00:58:51.602Z,100.00
2022-10-18T01:01:18.258Z,100.00
2022-10-18T01:03:44.754Z,100.00
2022-10-18T01:06:11.533Z,100.00
2022-10-18T01:08:44.968Z,100.00
2022-10-18T01:11:29.430Z,100.00
2022-10-18T01:14:13.805Z,100.00
2022-10-18T01:16:47.773Z,100.00
2022-10-18T01:19:43.206Z,100.00
2022-10-18T01:22:20.838Z,100.00
2022-10-18T01:25:19.842Z,100.00
2022-10-18T01:27:57.151Z,100.00
2022-10-18T01:30:29.438Z,100.00
2022-10-18T01:33:20.725Z,100.00
2022-10-18T01:36:09.874Z,100.00
2022-10-18T01:38:38.111Z,100.00
2022-10-18T01:41:06.397Z,100.00
2022-10-18T01:43:35.237Z,100.00
2022-10-18T01:46:04.007Z,100.00
2022-10-18T01:48:31.516Z,100.00
2022-10-18T01:50:58.240Z,100.00
2022-10-18T01:53:30.695Z,100.00
2022-10-18T01:56:14.460Z,100.00
2022-10-18T01:58:49.885Z,100.00
2022-10-18T02:01:37.797Z,100.00
2022-10-18T02:04:17.219Z,100.00
2022-10-18T02:06:46.679Z,100.00
2022-10-18T02:09:21.146Z,100.00
2022-10-18T02:11:51.280Z,100.00
2022-10-18T02:14:19.496Z,100.00
2022-10-18T02:16:51.071Z,100.00
2022-10-18T02:19:28.557Z,100.00
2022-10-18T02:21:57.661Z,100.00
2022-10-18T02:24:31.651Z,100.00
2022-10-18T02:26:58.127Z,100.00
2022-10-18T02:29:25.164Z,100.00
2022-10-18T02:31:59.410Z,100.00
2022-10-18T02:34:32.110Z,100.00
2022-10-18T02:37:01.021Z,100.00
2022-10-18T02:39:34.076Z,100.00
2022-10-18T02:42:00.802Z,100.00
2022-10-18T02:44:27.315Z,100.00
2022-10-18T02:46:53.816Z,100.00
2022-10-18T02:49:20.262Z,100.00
2022-10-18T02:51:46.828Z,100.00
2022-10-18T02:54:13.301Z,100.00
2022-10-18T02:56:39.723Z,100.00
2022-10-18T02:59:07.467Z,100.00
2022-10-18T03:01:34.779Z,100.00
2022-10-18T03:04:01.898Z,100.00
2022-10-18T03:06:28.524Z,100.00
2022-10-18T03:08:54.947Z,100.00
2022-10-18T03:11:21.496Z,100.00
2022-10-18T03:13:47.951Z,100.00
2022-10-18T03:16:14.439Z,100.00
2022-10-18T03:18:40.855Z,99.83
2022-10-18T03:21:08.324Z,99.75
2022-10-18T03:23:35.068Z,99.40
2022-10-18T03:26:01.908Z,99.16
2022-10-18T03:28:28.461Z,99.44
2022-10-18T03:31:01.222Z,99.20
2022-10-18T03:33:28.205Z,99.24
2022-10-18T03:35:54.657Z,99.06
2022-10-18T03:38:21.146Z,98.69
2022-10-18T03:40:47.585Z,98.00
2022-10-18T03:43:14.065Z,97.84
2022-10-18T03:45:40.674Z,97.80
2022-10-18T03:48:07.205Z,98.13
2022-10-18T03:50:33.639Z,98.18
2022-10-18T03:53:00.070Z,98.14
2022-10-18T03:55:26.512Z,97.95
2022-10-18T03:57:53.003Z,97.90
2022-10-18T04:00:19.544Z,97.64
2022-10-18T04:02:46.382Z,97.96
2022-10-18T04:05:14.062Z,97.77
2022-10-18T04:07:40.815Z,97.73
2022-10-18T04:10:07.788Z,97.92
2022-10-18T04:12:34.513Z,98.01
2022-10-18T04:15:01.022Z,98.24
2022-10-18T04:17:27.482Z,98.50
2022-10-18T04:19:53.923Z,98.91
2022-10-18T04:22:20.345Z,99.02
2022-10-18T04:24:46.955Z,99.32
2022-10-18T04:27:13.422Z,99.30
2022-10-18T04:29:39.840Z,99.29
2022-10-18T04:32:06.423Z,99.46
2022-10-18T04:34:32.881Z,99.15
2022-10-18T04:36:59.378Z,99.07
2022-10-18T04:39:25.850Z,98.91
2022-10-18T04:41:52.252Z,99.10
2022-10-18T04:44:18.741Z,98.92
2022-10-18T04:46:45.178Z,98.90
2022-10-18T04:49:11.667Z,98.53
2022-10-18T04:51:38.086Z,99.05
2022-10-18T04:54:04.570Z,99.06
2022-10-18T04:56:31.062Z,99.24
2022-10-18T04:58:58.484Z,99.38
2022-10-18T05:01:25.612Z,98.73
2022-10-18T05:03:54.212Z,98.37
2022-10-18T05:06:21.404Z,98.41
2022-10-18T05:08:48.186Z,98.46
2022-10-18T05:11:14.696Z,98.39
2022-10-18T05:13:41.202Z,98.14
2022-10-18T05:16:07.693Z,98.02
2022-10-18T05:18:34.202Z,98.21
2022-10-18T05:21:00.677Z,97.85
2022-10-18T05:23:27.092Z,97.70
2022-10-18T05:25:53.800Z,97.58
2022-10-18T05:31:08.774Z,97.26
2022-10-18T05:33:35.770Z,96.61
2022-10-18T05:36:02.317Z,96.92
2022-10-18T05:38:31.067Z,96.87
2022-10-18T05:40:58.271Z,96.22
2022-10-18T05:43:28.706Z,96.11
2022-10-18T05:45:55.175Z,96.48
2022-10-18T05:48:21.594Z,96.63
2022-10-18T05:50:48.010Z,97.08
2022-10-18T05:53:35.357Z,97.42
2022-10-18T05:56:01.660Z,97.48
2022-10-18T05:58:28.214Z,97.62
2022-10-18T06:00:54.714Z,97.93
2022-10-18T06:03:21.146Z,97.74
2022-10-18T06:05:47.630Z,98.15
2022-10-18T06:08:14.195Z,98.18
2022-10-18T06:10:40.637Z,98.25
2022-10-18T06:13:07.086Z,98.36
2022-10-18T06:15:33.569Z,98.03
2022-10-18T06:18:00.134Z,97.89
2022-10-18T06:20:26.540Z,97.80
2022-10-18T06:22:53.644Z,97.82
2022-10-18T06:25:20.104Z,98.06
2022-10-18T06:27:46.567Z,97.81
2022-10-18T06:30:13.029Z,97.91
2022-10-18T06:32:39.548Z,97.40
2022-10-18T06:35:06.539Z,97.22
2022-10-18T06:37:35.576Z,97.70
2022-10-18T06:40:02.350Z,97.61
2022-10-18T06:42:28.841Z,97.53
2022-10-18T06:44:55.274Z,96.92
2022-10-18T06:47:21.698Z,97.21
2022-10-18T06:49:48.118Z,97.48
2022-10-18T06:52:17.466Z,97.50
2022-10-18T06:54:45.423Z,97.45
2022-10-18T06:57:12.040Z,97.27
2022-10-18T06:59:38.550Z,97.41
2022-10-18T07:02:05.039Z,97.96
2022-10-18T07:04:31.513Z,97.71
2022-10-18T07:06:57.944Z,97.58
2022-10-18T07:09:24.435Z,97.24
2022-10-18T07:11:52.753Z,97.40
2022-10-18T07:14:19.185Z,96.82
2022-10-18T07:16:45.633Z,96.93
2022-10-18T07:19:12.246Z,96.59
2022-10-18T07:21:38.674Z,96.42
2022-10-18T07:24:05.333Z,96.08
2022-10-18T07:26:33.679Z,96.58
2022-10-18T07:29:04.771Z,95.98
2022-10-18T07:31:31.295Z,96.04
2022-10-18T07:33:57.967Z,96.02
2022-10-18T07:36:25.566Z,95.82
2022-10-18T07:38:52.543Z,95.68
2022-10-18T07:41:20.113Z,95.60
2022-10-18T07:43:51.489Z,95.47
2022-10-18T07:46:19.462Z,94.73
2022-10-18T07:48:45.891Z,95.18
2022-10-18T07:51:13.007Z,95.72
2022-10-18T07:53:39.834Z,96.72
2022-10-18T07:56:21.030Z,95.88
2022-10-18T07:58:53.622Z,95.29
2022-10-18T08:01:21.795Z,95.24
2022-10-18T08:03:48.466Z,94.57
2022-10-18T08:06:17.991Z,95.05
2022-10-18T08:08:45.661Z,95.46
2022-10-18T08:11:14.794Z,95.78
2022-10-18T08:13:41.674Z,95.58
2022-10-18T08:16:11.318Z,95.26
2022-10-18T08:18:38.306Z,95.11
2022-10-18T08:21:07.609Z,95.29
2022-10-18T08:23:35.080Z,94.99
2022-10-18T08:26:02.825Z,95.00
2022-10-18T08:28:29.554Z,94.92
2022-10-18T08:30:56.026Z,94.88
2022-10-18T08:33:22.706Z,95.20
2022-10-18T08:35:59.852Z,95.13
2022-10-18T08:38:28.698Z,95.27
2022-10-18T08:40:55.110Z,95.64
2022-10-18T08:43:25.403Z,95.25
2022-10-18T08:45:54.271Z,95.49
2022-10-18T08:48:30.579Z,95.47
2022-10-18T08:50:58.351Z,95.52
2022-10-18T08:53:35.085Z,95.54
2022-10-18T08:56:11.208Z,95.72
2022-10-18T08:58:38.662Z,95.25
2022-10-18T09:01:18.520Z,95.33
2022-10-18T09:04:18.292Z,95.21
2022-10-18T09:07:09.531Z,94.68
2022-10-18T09:09:47.594Z,93.96
2022-10-18T09:12:39.935Z,92.60
2022-10-18T09:15:13.645Z,92.50
2022-10-18T09:17:59.566Z,92.55
2022-10-18T09:20:54.434Z,92.16
2022-10-18T09:23:39.331Z,90.82
2022-10-18T09:26:23.083Z,89.95
2022-10-18T09:29:08.677Z,89.46
2022-10-18T09:31:56.821Z,90.38
2022-10-18T09:34:31.115Z,89.99
2022-10-18T09:36:58.963Z,89.72
2022-10-18T09:39:33.592Z,89.49
2022-10-18T09:42:16.618Z,89.66
2022-10-18T09:44:49.163Z,88.71
2022-10-18T09:47:33.827Z,89.45
2022-10-18T09:50:23.151Z,90.10
2022-10-18T09:53:20.253Z,90.35
2022-10-18T09:56:02.332Z,88.78
2022-10-18T09:58:47.027Z,88.71
2022-10-18T10:01:18.230Z,90.29
2022-10-18T10:03:44.762Z,89.53
2022-10-18T10:06:15.118Z,89.73
2022-10-18T10:08:43.879Z,90.08
2022-10-18T10:11:32.152Z,89.79
2022-10-18T10:14:19.543Z,86.10
2022-10-18T10:16:57.143Z,85.95
2022-10-18T10:19:28.069Z,85.77
2022-10-18T10:22:12.219Z,86.11
2022-10-18T10:24:41.604Z,83.47
2022-10-18T10:27:17.944Z,81.57
2022-10-18T10:29:53.591Z,79.26
2022-10-18T10:32:22.705Z,76.68
2022-10-18T10:34:50.058Z,76.73
2022-10-18T10:37:25.433Z,78.32
2022-10-18T10:40:23.049Z,78.60
2022-10-18T10:43:04.321Z,76.01
2022-10-18T10:46:04.106Z,76.32
2022-10-18T10:48:33.781Z,74.81
2022-10-18T10:51:02.051Z,73.75
2022-10-18T10:53:30.013Z,74.12
2022-10-18T10:55:58.887Z,75.46
2022-10-18T10:58:27.762Z,73.79
2022-10-18T11:00:56.327Z,74.50
2022-10-18T11:03:30.956Z,74.53
2022-10-18T11:06:00.482Z,73.68
2022-10-18T11:08:35.959Z,71.82
2022-10-18T11:11:16.977Z,71.54
2022-10-18T11:14:25.364Z,73.50
2022-10-18T11:17:06.936Z,71.05
2022-10-18T11:19:42.822Z,69.75
2022-10-18T11:22:16.115Z,69.74
2022-10-18T11:24:42.910Z,70.56
2022-10-18T11:27:34.973Z,71.05
2022-10-18T11:30:17.375Z,71.06
2022-10-18T11:33:10.417Z,71.14
2022-10-18T11:35:51.737Z,70.54
2022-10-18T11:38:18.115Z,68.84
2022-10-18T11:41:05.472Z,70.36
2022-10-18T11:44:02.341Z,70.78
2022-10-18T11:46:54.394Z,69.65
2022-10-18T11:49:35.731Z,69.91
2022-10-18T11:52:13.227Z,69.33
2022-10-18T11:54:49.662Z,69.25
2022-10-18T11:57:35.052Z,68.29
2022-10-18T12:03:18.565Z,67.96
2022-10-18T12:05:47.437Z,66.75
2022-10-18T12:08:35.482Z,67.24
2022-10-18T12:11:09.944Z,64.69
2022-10-18T12:13:46.717Z,66.18
2022-10-18T12:16:13.924Z,62.60
2022-10-18T12:21:28.370Z,60.71
2022-10-18T12:24:11.395Z,60.88
2022-10-18T12:26:38.368Z,61.64
2022-10-18T12:29:17.069Z,62.57
2022-10-18T12:31:50.081Z,62.25
2022-10-18T12:34:22.553Z,61.87
2022-10-18T12:36:48.924Z,63.68
2022-10-18T12:39:33.423Z,62.43
2022-10-18T12:42:22.982Z,62.51
2022-10-18T12:44:59.739Z,62.79
2022-10-18T12:47:28.497Z,61.17
2022-10-18T12:49:57.402Z,60.76
2022-10-18T12:52:28.020Z,61.39
2022-10-18T12:55:16.715Z,62.43
2022-10-18T12:57:52.945Z,63.72
2022-10-18T13:00:31.363Z,62.97
2022-10-18T13:03:10.174Z,64.27
2022-10-18T13:05:55.016Z,62.84
2022-10-18T13:08:28.203Z,62.63
2022-10-18T13:11:12.829Z,63.70
2022-10-18T13:13:51.639Z,63.56
2022-10-18T13:16:21.028Z,65.48
2022-10-18T13:18:55.535Z,63.35
2022-10-18T13:21:55.213Z,63.09
2022-10-18T13:24:29.040Z,63.24
2022-10-18T13:30:20.970Z,59.88
2022-10-18T13:33:08.497Z,60.33
2022-10-18T13:35:55.060Z,60.18
2022-10-18T13:38:27.995Z,60.70
2022-10-18T13:41:04.514Z,60.67
2022-10-18T13:43:53.085Z,60.77
2022-10-18T13:46:20.089Z,60.76
2022-10-18T13:48:47.696Z,59.24
2022-10-18T13:52:03.827Z,60.08
2022-10-18T13:54:48.617Z,56.40
2022-10-18T13:57:27.178Z,57.43
2022-10-18T14:00:03.455Z,55.71
2022-10-18T14:03:16.261Z,56.95
2022-10-18T14:06:02.185Z,54.19
2022-10-18T14:08:31.653Z,52.99
2022-10-18T14:11:15.633Z,52.41
2022-10-18T14:13:45.126Z,51.77
2022-10-18T14:16:38.902Z,51.43
2022-10-18T14:19:17.098Z,48.81
2022-10-18T14:22:07.511Z,51.47
2022-10-18T14:24:34.587Z,53.75
2022-10-18T14:27:24.409Z,54.95
2022-10-18T14:30:07.287Z,52.80
2022-10-18T14:32:35.317Z,53.83
2022-10-18T14:35:30.693Z,54.05
2022-10-18T14:37:51.458Z,54.98
2022-10-18T14:40:39.063Z,54.16
2022-10-18T14:43:18.893Z,55.15
2022-10-18T14:45:45.776Z,53.48
2022-10-18T14:48:20.521Z,54.88
2022-10-18T14:50:59.177Z,53.67
2022-10-18T14:53:32.433Z,55.15
2022-10-18T14:56:00.903Z,58.13
2022-10-18T14:58:28.165Z,58.25
2022-10-18T15:00:55.015Z,57.98
2022-10-18T15:03:22.008Z,58.49
2022-10-18T15:06:05.849Z,59.17
2022-10-18T15:08:43.216Z,58.49
2022-10-18T15:11:14.320Z,56.54
2022-10-18T15:13:53.533Z,58.23
2022-10-18T15:16:23.200Z,58.64
2022-10-18T15:19:05.937Z,58.96
2022-10-18T15:21:34.675Z,58.54
2022-10-18T15:24:25.892Z,59.63
2022-10-18T15:26:54.949Z,59.48
2022-10-18T15:29:21.958Z,59.54
2022-10-18T15:31:50.004Z,59.80
2022-10-18T15:34:25.824Z,60.73
2022-10-18T15:36:54.690Z,59.03
2022-10-18T15:39:26.957Z,60.01
2022-10-18T15:41:54.708Z,61.71
2022-10-18T15:44:27.860Z,62.58
2022-10-18T15:46:57.286Z,63.19
2022-10-18T15:49:23.644Z,63.18
2022-10-18T15:52:03.797Z,63.05
2022-10-18T15:54:30.737Z,62.52
2022-10-18T15:56:57.543Z,62.43
2022-10-18T15:59:30.741Z,63.98
2022-10-18T16:01:57.458Z,64.04
2022-10-18T16:04:42.147Z,65.03
2022-10-18T16:07:12.149Z,64.98
2022-10-18T16:09:38.663Z,63.35
2022-10-18T16:12:05.207Z,61.06
2022-10-18T16:14:31.973Z,60.15
2022-10-18T16:17:05.451Z,58.49
2022-10-18T16:19:33.095Z,59.57
2022-10-18T16:22:06.026Z,61.54
2022-10-18T16:24:33.020Z,62.25
2022-10-18T16:26:59.478Z,63.87
2022-10-18T16:29:28.487Z,65.41
2022-10-18T16:31:58.071Z,66.69
2022-10-18T16:34:28.878Z,67.16
2022-10-18T16:36:55.474Z,68.34
2022-10-18T16:39:23.163Z,69.24
2022-10-18T16:41:49.719Z,69.44
2022-10-18T16:44:17.154Z,69.95
2022-10-18T16:46:44.088Z,70.03
2022-10-18T16:49:23.843Z,70.75
2022-10-18T16:51:52.049Z,71.77
2022-10-18T16:54:18.701Z,71.58
2022-10-18T16:56:46.741Z,72.83
2022-10-18T16:59:28.211Z,72.65
2022-10-18T17:01:54.936Z,74.00
2022-10-18T17:04:21.465Z,73.75
2022-10-18T17:06:49.074Z,73.86
2022-10-18T17:09:16.008Z,73.82
2022-10-18T17:11:42.502Z,74.57
2022-10-18T17:14:09.003Z,74.40
2022-10-18T17:16:37.062Z,75.06
2022-10-18T17:19:07.546Z,74.98
2022-10-18T17:21:34.083Z,75.17
2022-10-18T17:24:05.793Z,75.57
2022-10-18T17:26:33.065Z,76.27
2022-10-18T17:29:03.253Z,76.98
2022-10-18T17:31:30.746Z,77.62
2022-10-18T17:33:58.779Z,77.43
2022-10-18T17:36:26.077Z,77.70
2022-10-18T17:38:53.591Z,78.33
2022-10-18T17:41:20.897Z,78.79
2022-10-18T17:43:48.326Z,78.75
2022-10-18T17:46:15.399Z,78.31
2022-10-18T17:48:42.259Z,78.63
2022-10-18T17:51:10.946Z,79.36
2022-10-18T17:53:37.641Z,79.88
2022-10-18T17:56:05.006Z,80.02
2022-10-18T17:58:32.265Z,79.34
2022-10-18T18:01:11.732Z,80.51
2022-10-18T18:03:38.828Z,81.43
2022-10-18T18:06:15.965Z,81.86
2022-10-18T18:08:42.487Z,82.16
2022-10-18T18:11:09.147Z,81.89
2022-10-18T18:13:35.649Z,81.11
2022-10-18T18:16:14.506Z,80.75
2022-10-18T18:18:41.662Z,81.40
2022-10-18T18:21:08.115Z,81.45
2022-10-18T18:23:34.586Z,82.12
2022-10-18T18:26:01.046Z,82.21
2022-10-18T18:28:27.706Z,82.35
2022-10-18T18:30:54.261Z,81.76
2022-10-18T18:33:20.724Z,82.19
2022-10-18T18:35:57.220Z,82.18
2022-10-18T18:38:24.349Z,82.44
2022-10-18T18:40:50.807Z,82.40
2022-10-18T18:43:24.323Z,82.77
2022-10-18T18:45:52.109Z,82.72
2022-10-18T18:48:19.912Z,83.09
2022-10-18T18:50:51.803Z,83.09
2022-10-18T18:53:19.242Z,83.66
2022-10-18T18:55:45.822Z,83.62
2022-10-18T18:58:12.319Z,83.56
2022-10-18T19:00:43.533Z,83.72
2022-10-18T19:03:11.970Z,83.58
2022-10-18T19:05:38.647Z,83.91
2022-10-18T19:08:05.835Z,83.50
2022-10-18T19:10:32.463Z,83.36
2022-10-18T19:12:58.970Z,84.10
2022-10-18T19:15:25.849Z,84.44
2022-10-18T19:17:52.391Z,84.65
2022-10-18T19:20:18.885Z,84.68
2022-10-18T19:22:45.894Z,84.70
2022-10-18T19:25:12.946Z,84.77
2022-10-18T19:27:39.582Z,84.53
2022-10-18T19:30:10.772Z,84.74
2022-10-18T19:32:37.282Z,85.30
2022-10-18T19:35:04.073Z,84.94
2022-10-18T19:37:30.697Z,84.89
2022-10-18T19:39:58.530Z,84.97
2022-10-18T19:42:30.320Z,84.83
2022-10-18T19:44:57.904Z,85.07
2022-10-18T19:47:24.370Z,85.71
2022-10-18T19:49:51.829Z,85.61
2022-10-18T19:52:18.275Z,85.17
2022-10-18T19:54:45.117Z,85.26
2022-10-18T19:57:11.659Z,85.58
2022-10-18T19:59:38.498Z,85.32
2022-10-18T20:02:05.006Z,85.21
2022-10-18T20:04:34.443Z,84.98
2022-10-18T20:07:02.728Z,84.56
2022-10-18T20:09:29.718Z,84.58
2022-10-18T20:11:56.185Z,84.86
2022-10-18T20:14:22.806Z,85.51
2022-10-18T20:16:49.308Z,85.67
2022-10-18T20:19:15.850Z,85.91
2022-10-18T20:21:42.391Z,85.04
2022-10-18T20:24:09.470Z,85.48
2022-10-18T20:26:36.385Z,85.86
2022-10-18T20:29:03.794Z,85.71
2022-10-18T20:31:33.824Z,85.73
2022-10-18T20:34:02.707Z,85.91
2022-10-18T20:36:31.057Z,85.71
2022-10-18T20:38:57.917Z,85.89
2022-10-18T20:41:29.873Z,86.27
2022-10-18T20:43:59.531Z,85.93
2022-10-18T20:46:27.102Z,86.60
2022-10-18T20:48:54.386Z,86.41
2022-10-18T20:51:21.750Z,87.05
2022-10-18T20:53:49.083Z,87.22
2022-10-18T20:56:20.408Z,87.78
2022-10-18T20:58:49.317Z,87.69
2022-10-18T21:01:23.267Z,87.44
2022-10-18T21:03:51.673Z,87.68
2022-10-18T21:06:19.444Z,87.61
2022-10-18T21:08:46.306Z,87.98
2022-10-18T21:11:14.187Z,88.15
2022-10-18T21:13:43.302Z,88.40
2022-10-18T21:16:09.846Z,88.31
2022-10-18T21:18:37.363Z,88.42
2022-10-18T21:21:24.503Z,87.85
2022-10-18T21:23:52.217Z,87.75
2022-10-18T21:26:21.643Z,87.86
2022-10-18T21:28:50.439Z,87.99
2022-10-18T21:31:22.104Z,87.57
2022-10-18T21:33:56.668Z,87.97
2022-10-18T21:36:23.705Z,87.29
2022-10-18T21:38:50.936Z,88.11
2022-10-18T21:41:19.131Z,87.70
2022-10-18T21:43:48.951Z,87.57
2022-10-18T21:46:17.751Z,87.54
2022-10-18T21:48:46.665Z,87.44
2022-10-18T21:51:15.145Z,87.32
2022-10-18T21:53:46.414Z,87.34
2022-10-18T21:56:15.707Z,87.40
2022-10-18T21:58:42.747Z,87.58
2022-10-18T22:01:19.832Z,87.72
2022-10-18T22:03:48.635Z,87.91
2022-10-18T22:06:16.555Z,87.49
2022-10-18T22:08:45.178Z,87.58
2022-10-18T22:11:12.800Z,87.44
2022-10-18T22:13:39.787Z,87.46
2022-10-18T22:16:07.354Z,87.02
2022-10-18T22:18:34.494Z,87.39
2022-10-18T22:21:04.976Z,87.19
2022-10-18T22:23:33.821Z,87.76
2022-10-18T22:26:09.057Z,87.18
2022-10-18T22:28:35.912Z,87.69
2022-10-18T22:31:02.455Z,87.83
2022-10-18T22:33:29.241Z,87.52
2022-10-18T22:35:55.810Z,87.81
2022-10-18T22:38:22.430Z,87.95
2022-10-18T22:40:49.290Z,87.77
2022-10-18T22:43:15.718Z,87.74
2022-10-18T22:45:42.205Z,87.31
2022-10-18T22:48:08.620Z,87.56
2022-10-18T22:50:35.072Z,87.62
2022-10-18T22:53:01.469Z,87.69
2022-10-18T22:55:27.905Z,88.44
2022-10-18T22:57:56.286Z,88.50
2022-10-18T23:00:22.730Z,88.29
2022-10-18T23:02:49.943Z,88.35
2022-10-18T23:05:16.447Z,88.80
2022-10-18T23:07:47.534Z,88.63
2022-10-18T23:10:14.051Z,88.57
2022-10-18T23:12:40.487Z,88.79
2022-10-18T23:15:07.621Z,89.27
2022-10-18T23:17:34.253Z,89.21
2022-10-18T23:20:00.862Z,89.49
2022-10-18T23:22:27.311Z,89.42
2022-10-18T23:24:53.735Z,89.48
2022-10-18T23:27:20.158Z,88.13
2022-10-18T23:29:46.559Z,88.62
2022-10-18T23:32:13.041Z,88.37
2022-10-18T23:34:39.423Z,88.29
2022-10-18T23:37:05.854Z,87.71
2022-10-18T23:39:32.262Z,86.73
2022-10-18T23:41:58.713Z,86.73
2022-10-18T23:44:25.100Z,86.30
2022-10-18T23:46:51.590Z,86.70
2022-10-18T23:49:18.011Z,86.80
2022-10-18T23:51:44.439Z,86.64
2022-10-18T23:54:10.828Z,87.32
2022-10-18T23:56:37.294Z,87.25
2022-10-18T23:59:03.711Z,86.97
